Alamosa, Colorado
Current Conditions -  °F | °C
As of 4:52 PM on Wednesday 22 Oct 2014 (Local Time) from KALS Reporting Station
Overcast Overcast  
Wind Chill: 63°   Ceiling: 11000
Heat Index: 63°   Visibility: 10mi
Dew Point: 31°   Wind: 14mph
Humidity: 30%   Direction: 260°W
Pressure: 30.19"   Gusts: NA
Location:  37.47°N, 105.87°W
Report Text: KALS 222252Z AUTO 26012KT 10SM OVC110 17/M01 A3019 RMK AO2 SLP172 T01721006
Loading
Personal Weather Stations






























Interactive Weather Map
Tropical Storm Tracking
New forecast layout! Learn more

10-Day Weather Forecast

Advertisements
Track Severe Weather on mobile